Data for 07/27/2009

Time Sea-Level Adjusted Pressure Absolute Pressure Temperature Relative Humidity Dew Point   
(mb) (inHg) (mb) (inHg) (C) (F) (%) (C) (F)
00:05 1023 30.21 852 25.16 15.5 59.9 62 8.3 46.9
00:10 1023 30.21 852 25.16 15.6 60 62 8.3 46.9
00:15 1024 30.24 853 25.19 15.8 60.5 61 8.4 47.2
00:20 1024 30.24 853 25.19 16.1 60.9 62 8.8 47.8
00:25 1024 30.24 853 25.19 16.2 61.2 60 8.5 47.3
00:30 1024 30.24 853 25.19 16.3 61.4 58 8.2 46.8
00:35 1024 30.24 853 25.19 16.7 62 57 8.2 46.8
00:40 1024 30.24 853 25.19 17.4 63.2 54 8 46.3
00:45 1024 30.24 853 25.19 17.4 63.4 56 8.5 47.4
00:50 1024 30.24 853 25.19 17.3 63.1 57 8.7 47.7
00:55 1024 30.24 854 25.22 17.2 63 56 8.4 47
01:00 1024 30.24 853 25.19 17.4 63.4 56 8.6 47.5
01:05 1024 30.24 854 25.22 17.3 63.2 57 8.9 48
01:10 1024 30.24 854 25.22 16.9 62.5 60 9.1 48.4
01:15 1024 30.24 854 25.22 16.8 62.2 59 8.8 47.9
01:20 1024 30.24 854 25.22 16.9 62.4 61 9.3 48.8
01:25 1025 30.27 854 25.22 16.8 62.3 63 9.7 49.5
01:30 1025 30.27 854 25.22 16.7 62.1 65 10.2 50.3
01:35 1025 30.27 854 25.22 16.7 62 64 9.9 49.8
01:40 1025 30.27 854 25.22 16.7 62.1 64 9.9 49.8
01:45 1025 30.27 854 25.22 16.8 62.2 65 10.2 50.3
01:50 1025 30.27 854 25.22 16.9 62.3 64 10.2 50.3
01:55 1025 30.27 854 25.22 16.9 62.3 65 10.3 50.5
02:00 1025 30.27 854 25.22 16.8 62.2 64 10 50
02:05 1025 30.27 854 25.22 16.6 61.8 65 10 50
02:10 1025 30.27 854 25.22 16.4 61.6 66 10 50
02:15 1025 30.27 854 25.22 16.2 61.1 69 10.5 50.9
02:20 1025 30.27 854 25.22 15.9 60.7 69 10.2 50.4
02:25 1025 30.27 854 25.22 16 60.7 71 10.7 51.2
02:30 1025 30.27 854 25.22 15.9 60.6 72 11 51.8
02:35 1025 30.27 854 25.22 15.7 60.3 73 10.9 51.7
02:40 1025 30.27 854 25.22 15.5 59.9 72 10.4 50.8
02:45 1025 30.27 854 25.22 15.6 60 73 10.7 51.3
02:50 1025 30.27 854 25.22 15.7 60.2 74 11.1 51.9
02:55 1025 30.27 854 25.22 15.8 60.4 72 10.9 51.6
03:00 1025 30.27 854 25.22 15.7 60.2 72 10.7 51.2
03:05 1025 30.27 854 25.22 15.6 60.1 73 10.9 51.6
03:10 1025 30.27 854 25.22 15.6 60 74 11 51.9
03:15 1025 30.27 855 25.25 15.5 59.9 77 11.6 52.8
03:20 1025 30.27 855 25.25 15.2 59.3 81 11.9 53.4
03:25 1025 30.27 855 25.25 15 59 82 12 53.5
03:30 1025 30.27 855 25.25 15.1 59.1 79 11.4 52.6
03:35 1026 30.3 855 25.25 15.1 59.2 77 11.2 52.1
03:40 1026 30.3 855 25.25 15.1 59.2 77 11.1 52
03:45 1026 30.3 855 25.25 15.1 59.2 77 11.2 52.1
03:50 1026 30.3 855 25.25 15.2 59.3 78 11.5 52.6
03:55 1026 30.3 855 25.25 15.1 59.2 79 11.5 52.8
04:00 1026 30.3 855 25.25 15 59 80 11.6 52.9
04:05 1026 30.3 855 25.25 15.1 59.1 80 11.7 53
04:10 1026 30.3 855 25.25 15.1 59.1 81 11.8 53.2
04:15 1026 30.3 855 25.25 15 59.1 81 11.9 53.4
04:20 1026 30.3 855 25.25 15 59.1 82 12.1 53.7
04:25 1026 30.3 855 25.25 15 59.1 82 12 53.6
04:30 1026 30.3 855 25.25 15 59.1 82 12 53.7
04:35 1026 30.3 855 25.25 15 59 83 12.1 53.8
04:40 1026 30.3 855 25.25 14.6 58.2 85 12.1 53.8
04:45 1026 30.3 855 25.25 14.5 58 85 11.9 53.5
04:50 1026 30.3 855 25.25 14.4 57.9 85 11.9 53.5
04:55 1026 30.3 855 25.25 14.4 58 85 12 53.5
05:00 1026 30.3 855 25.25 14.3 57.8 86 12 53.6
05:05 1026 30.3 855 25.25 14.2 57.6 87 12 53.7
05:10 1026 30.3 855 25.25 14.1 57.4 87 12.1 53.8
05:15 1026 30.3 855 25.25 14.1 57.4 88 12.1 53.7
05:20 1026 30.3 855 25.25 14 57.3 89 12.3 54.2
05:25 1026 30.3 855 25.25 14 57.2 90 12.3 54.2
05:30 1025 30.27 855 25.25 13.9 57.1 89 12.2 54
05:35 1025 30.27 855 25.25 14 57.1 89 12.1 53.8
05:40 1026 30.3 855 25.25 14 57.2 88 12.1 53.7
05:45 1026 30.3 855 25.25 14 57.2 89 12.1 53.9
05:50 1026 30.3 855 25.25 13.9 57 89 12.1 53.9
05:55 1025 30.27 855 25.25 13.9 56.9 89 12 53.6
06:00 1026 30.3 855 25.25 13.9 57 87 11.8 53.3
06:05 1026 30.3 855 25.25 13.9 57.1 87 11.8 53.3
06:10 1025 30.27 855 25.25 14 57.1 87 11.9 53.4
06:15 1026 30.3 855 25.25 14 57.1 87 11.8 53.3
06:20 1025 30.27 855 25.25 14 57.1 87 11.9 53.4
06:25 1026 30.3 855 25.25 14 57.1 88 12 53.6
06:30 1026 30.3 855 25.25 14 57.2 87 11.8 53.3
06:35 1025 30.27 855 25.25 14 57.2 87 11.9 53.4
06:40 1025 30.27 855 25.25 14.1 57.3 86 11.8 53.3
06:45 1025 30.27 855 25.25 14.1 57.4 86 11.9 53.4
06:50 1025 30.27 855 25.25 14.2 57.6 86 11.9 53.5
06:55 1025 30.27 855 25.25 14.2 57.5 86 11.9 53.5
07:00 1025 30.27 855 25.25 14.1 57.4 87 12.1 53.7
07:05 1025 30.27 855 25.25 14.1 57.4 87 12 53.6
07:10 1025 30.27 855 25.25 14.1 57.4 87 12 53.6
07:15 1025 30.27 855 25.25 14.2 57.6 87 12.1 53.8
07:20 1025 30.27 855 25.25 14.2 57.6 86 12 53.6
07:25 1025 30.27 855 25.25 14.2 57.6 87 12 53.6
07:30 1025 30.27 855 25.25 14.2 57.6 87 12.1 53.9
07:35 1025 30.27 855 25.25 14.1 57.4 87 12.1 53.7
07:40 1025 30.27 855 25.25 14.1 57.3 87 12 53.7
07:45 1025 30.27 855 25.25 14.3 57.8 86 12 53.7
07:50 1025 30.27 855 25.25 14.4 57.9 87 12.2 54
07:55 1025 30.27 855 25.25 14.3 57.8 87 12.3 54.1
08:00 1025 30.27 855 25.25 14.4 57.9 87 12.3 54.2
08:05 1025 30.27 855 25.25 14.4 58 87 12.3 54.2
08:10 1025 30.27 855 25.25 14.6 58.3 86 12.2 54
08:15 1025 30.27 855 25.25 14.7 58.5 85 12.3 54.2
08:20 1026 30.3 855 25.25 14.8 58.6 85 12.2 54
08:25 1025 30.27 855 25.25 14.9 58.8 84 12.2 53.9
08:30 1025 30.27 855 25.25 14.7 58.5 85 12.3 54.1
08:35 1025 30.27 855 25.25 14.9 58.8 83 12.1 53.8
08:40 1025 30.27 855 25.25 15 59 82 12.1 53.7
08:45 1025 30.27 855 25.25 15.3 59.6 81 12.1 53.9
08:50 1025 30.27 855 25.25 15.5 59.9 80 12.2 53.9
08:55 1025 30.27 855 25.25 15.6 60.1 79 12 53.6
09:00 1026 30.3 855 25.25 15.9 60.6 78 12.1 53.7
09:05 1026 30.3 855 25.25 16 60.8 79 12.3 54.1
09:10 1026 30.3 855 25.25 15.9 60.5 80 12.5 54.5
09:15 1026 30.3 855 25.25 15.7 60.2 81 12.5 54.5
09:20 1026 30.3 855 25.25 15.5 59.9 82 12.4 54.3
09:25 1026 30.3 855 25.25 15.5 59.9 82 12.5 54.6
09:30 1026 30.3 855 25.25 15.4 59.6 83 12.6 54.6
09:35 1026 30.3 855 25.25 15.3 59.6 83 12.5 54.4
09:40 1026 30.3 855 25.25 15.4 59.7 83 12.6 54.7
09:45 1026 30.3 855 25.25 15.7 60.2 83 12.8 55.1
09:50 1026 30.3 855 25.25 15.8 60.4 82 12.8 55
09:55 1026 30.3 855 25.25 15.8 60.4 82 12.7 54.9
10:00 1026 30.3 855 25.25 16 60.7 81 12.8 55.1
10:05 1026 30.3 855 25.25 15.9 60.6 80 12.5 54.6
10:10 1026 30.3 855 25.25 16 60.8 81 12.7 54.8
10:15 1026 30.3 855 25.25 16.1 60.9 79 12.5 54.6
10:20 1026 30.3 855 25.25 16.3 61.3 78 12.5 54.5
10:25 1026 30.3 855 25.25 16.3 61.4 79 12.7 54.9
10:30 1026 30.3 855 25.25 16.5 61.7 77 12.5 54.6
10:35 1026 30.3 855 25.25 16.8 62.3 76 12.7 54.8
10:40 1026 30.3 855 25.25 17 62.6 75 12.6 54.6
10:45 1026 30.3 855 25.25 17.4 63.4 73 12.6 54.7
10:50 1026 30.3 855 25.25 17.4 63.2 74 12.8 55
10:55 1026 30.3 855 25.25 17.6 63.6 71 12.2 54
11:00 1026 30.3 855 25.25 17.9 64.1 71 12.5 54.6
11:05 1026 30.3 855 25.25 17.7 63.8 71 12.5 54.5
11:10 1026 30.3 855 25.25 17.6 63.8 71 12.5 54.4
11:15 1026 30.3 855 25.25 17.6 63.6 74 12.8 55.1
11:20 1026 30.3 855 25.25 17.1 62.9 73 12.3 54.1
11:25 1026 30.3 855 25.25 17.6 63.7 72 12.5 54.5
11:30 1026 30.3 855 25.25 17.7 63.8 71 12.4 54.3
11:35 1026 30.3 855 25.25 17.8 64 71 12.5 54.5
11:40 1026 30.3 855 25.25 17.8 64.1 70 12.3 54.2
11:45 1026 30.3 855 25.25 18 64.4 70 12.4 54.4
11:50 1026 30.3 855 25.25 18.2 64.7 69 12.4 54.3
11:55 1026 30.3 855 25.25 18.4 65.1 68 12.5 54.5
12:00 1026 30.3 855 25.25 18.4 65.1 69 12.7 54.9
12:05 1026 30.3 855 25.25 18 64.5 73 13.1 55.6
12:10 1025 30.27 855 25.25 17.5 63.4 76 13.3 55.9
12:15 1025 30.27 855 25.25 17.3 63.1 75 12.9 55.3
12:20 1025 30.27 855 25.25 17.5 63.4 74 12.8 55
12:25 1025 30.27 854 25.22 17.5 63.6 74 12.8 55.1
12:30 1025 30.27 855 25.25 17.7 63.9 73 12.9 55.3
12:35 1025 30.27 855 25.25 17.8 64 73 13 55.3
12:40 1025 30.27 854 25.22 17.8 64 72 12.7 54.8
12:45 1025 30.27 854 25.22 17.6 63.7 75 13.1 55.6
12:50 1025 30.27 854 25.22 17.6 63.7 77 13.6 56.5
12:55 1025 30.27 854 25.22 17.4 63.2 77 13.4 56
13:00 1025 30.27 854 25.22 17.6 63.6 74 13 55.4
13:05 1025 30.27 854 25.22 17.5 63.5 74 12.9 55.2
13:10 1025 30.27 854 25.22 17.8 64 72 12.8 55
13:15 1025 30.27 854 25.22 18.2 64.7 70 12.6 54.7
13:20 1025 30.27 854 25.22 18.4 65.1 68 12.5 54.4
13:25 1025 30.27 854 25.22 18.2 64.8 68 12.3 54.1
13:30 1025 30.27 854 25.22 18 64.5 69 12.4 54.4
13:35 1025 30.27 854 25.22 17.6 63.6 73 12.8 55
13:40 1025 30.27 854 25.22 16.6 62 74 11.9 53.5
13:45 1025 30.27 854 25.22 16.3 61.4 75 11.9 53.3
13:50 1025 30.27 854 25.22 16.3 61.4 75 11.9 53.4
13:55 1025 30.27 854 25.22 16.5 61.7 72 11.5 52.8
14:00 1025 30.27 854 25.22 16.7 62 73 11.9 53.4
14:05 1025 30.27 854 25.22 17.1 62.7 73 12.2 53.9
14:10 1025 30.27 854 25.22 16.8 62.3 74 12.2 54
14:15 1025 30.27 854 25.22 16.8 62.2 73 11.9 53.4
14:20 1025 30.27 854 25.22 16.8 62.2 73 11.9 53.5
14:25 1025 30.27 854 25.22 17.3 63.2 70 11.8 53.2
14:30 1025 30.27 854 25.22 17.4 63.3 69 11.6 53
14:35 1025 30.27 854 25.22 17.2 63 71 12.1 53.7
14:40 1025 30.27 854 25.22 17.1 62.8 71 11.8 53.2
14:45 1025 30.27 854 25.22 17.5 63.5 70 12 53.6
14:50 1025 30.27 854 25.22 17.3 63.1 68 11.5 52.7
14:55 1025 30.27 854 25.22 17.5 63.4 68 11.6 52.9
15:00 1025 30.27 854 25.22 17.8 64 66 11.3 52.4
15:05 1025 30.27 854 25.22 18.9 66 60 11 51.8
15:10 1025 30.27 854 25.22 19.3 66.7 64 12.3 54.1
15:15 1025 30.27 854 25.22 19 66.2 61 11.5 52.6
15:20 1025 30.27 854 25.22 19.1 66.3 63 11.9 53.4
15:25 1025 30.27 854 25.22 18.7 65.6 64 11.7 53.1
15:30 1025 30.27 854 25.22 18.5 65.3 64 11.8 53.2
15:35 1025 30.27 854 25.22 18.4 65.2 63 11.4 52.6
15:40 1025 30.27 854 25.22 18.6 65.5 63 11.5 52.7
15:45 1025 30.27 854 25.22 18.5 65.2 63 11.5 52.7
15:50 1025 30.27 854 25.22 18.8 65.8 69 13 55.3
15:55 1025 30.27 854 25.22 18.8 65.8 66 12.5 54.4
16:00 1025 30.27 854 25.22 18.5 65.3 68 12.4 54.4
16:05 1025 30.27 854 25.22 17.9 64.1 76 13.6 56.4
16:10 1025 30.27 854 25.22 17.5 63.5 78 13.7 56.6
16:15 1025 30.27 854 25.22 17.3 63.1 77 13.2 55.8
16:20 1025 30.27 854 25.22 17.1 62.8 80 13.7 56.7
16:25 1025 30.27 854 25.22 17 62.5 82 13.8 56.9
16:30 1025 30.27 854 25.22 16.6 61.9 83 13.8 56.8
16:35 1025 30.27 854 25.22 16.2 61.2 84 13.5 56.3
16:40 1025 30.27 854 25.22 16 60.8 87 13.9 56.9
16:45 1025 30.27 854 25.22 15.9 60.6 86 13.5 56.3
16:50 1025 30.27 854 25.22 15.6 60.1 87 13.4 56.2
16:55 1025 30.27 854 25.22 15.6 60.1 85 13.1 55.6
17:00 1025 30.27 854 25.22 15.4 59.7 87 13.2 55.7
17:05 1025 30.27 854 25.22 15.4 59.7 85 12.9 55.2
17:10 1025 30.27 854 25.22 15.4 59.8 87 13.3 56
17:15 1025 30.27 854 25.22 15.6 60 85 13 55.4
17:20 1025 30.27 854 25.22 15.5 59.9 87 13.4 56
17:25 1025 30.27 854 25.22 15.8 60.5 85 13.4 56.1
17:30 1025 30.27 854 25.22 15.9 60.6 83 13 55.4
17:35 1025 30.27 854 25.22 15.5 60 83 12.6 54.7
17:40 1025 30.27 854 25.22 15.4 59.8 81 12.2 53.9
17:45 1025 30.27 854 25.22 15.4 59.7 79 11.8 53.2
17:50 1025 30.27 854 25.22 15.5 60 83 12.7 54.9
17:55 1025 30.27 854 25.22 15.6 60.1 84 12.9 55.3
18:00 1025 30.27 854 25.22 15.6 60.1 83 12.7 54.9
18:05 1025 30.27 854 25.22 15.5 59.9 87 13.3 55.9
18:10 1025 30.27 854 25.22 15.4 59.8 86 13.1 55.6
18:15 1025 30.27 854 25.22 15.3 59.5 87 13 55.5
18:20 1025 30.27 854 25.22 15.2 59.4 87 13.1 55.5
18:25 1025 30.27 854 25.22 15.3 59.5 88 13.4 56.1
18:30 1025 30.27 854 25.22 15.4 59.8 86 13.1 55.6
18:35 1025 30.27 854 25.22 15.6 60.2 83 12.8 55
18:40 1025 30.27 854 25.22 15.9 60.5 82 12.7 54.9
18:45 1025 30.27 854 25.22 15.9 60.7 78 12.2 53.9
18:50 1025 30.27 854 25.22 15.9 60.6 81 12.7 54.8
18:55 1025 30.27 854 25.22 16 60.8 80 12.5 54.6
19:00 1025 30.27 854 25.22 15.8 60.4 77 11.7 53.1
19:05 1025 30.27 854 25.22 15.5 59.9 76 11.3 52.3
19:10 1025 30.27 854 25.22 15.3 59.5 82 12.2 54
19:15 1025 30.27 854 25.22 15.3 59.5 85 12.8 55.1
19:20 1025 30.27 854 25.22 15.3 59.5 85 12.8 55
19:25 1025 30.27 854 25.22 15.3 59.5 79 11.7 53
19:30 1025 30.27 854 25.22 15.3 59.6 74 10.7 51.3
19:35 1025 30.27 854 25.22 15.4 59.6 74 10.8 51.5
19:40 1025 30.27 854 25.22 15.2 59.3 78 11.4 52.5
19:45 1025 30.27 854 25.22 15.1 59.1 77 11 51.8
19:50 1025 30.27 854 25.22 15.1 59.2 75 10.7 51.2
19:55 1025 30.27 854 25.22 15.2 59.4 73 10.5 50.8
20:00 1025 30.27 854 25.22 15.2 59.3 75 10.8 51.5
20:05 1025 30.27 854 25.22 15.2 59.3 80 11.8 53.2
20:10 1025 30.27 854 25.22 15 59.1 83 12.1 53.8
20:15 1025 30.27 854 25.22 14.9 58.9 83 12.1 53.8
20:20 1025 30.27 854 25.22 14.8 58.6 85 12.3 54.1
20:25 1025 30.27 854 25.22 14.6 58.3 86 12.2 54
20:30 1025 30.27 854 25.22 14.5 58.1 85 12 53.6
20:35 1025 30.27 854 25.22 14.5 58.1 84 11.9 53.5
20:40 1025 30.27 854 25.22 14.5 58 86 12.1 53.8
20:45 1025 30.27 854 25.22 14.3 57.8 87 12.2 53.9
20:50 1025 30.27 854 25.22 14.3 57.7 86 12 53.6
20:55 1025 30.27 854 25.22 14.3 57.7 86 12 53.7
21:00 1025 30.27 854 25.22 14.2 57.6 87 12.1 53.9
21:05 1025 30.27 854 25.22 14.1 57.4 87 12.1 53.7
21:10 1025 30.27 854 25.22 14.1 57.3 88 12.1 53.7
21:15 1025 30.27 855 25.25 14 57.1 88 12 53.6
21:20 1025 30.27 855 25.25 13.9 57.1 87 11.9 53.3
21:25 1025 30.27 855 25.25 13.9 57 88 11.9 53.5
21:30 1025 30.27 855 25.25 13.9 57 87 11.7 53.1
21:35 1025 30.27 855 25.25 13.9 57 87 11.7 53.1
21:40 1026 30.3 855 25.25 13.9 57 87 11.8 53.3
21:45 1026 30.3 855 25.25 13.9 56.9 87 11.8 53.3
21:50 1026 30.3 855 25.25 13.9 56.9 88 11.8 53.3
21:55 1026 30.3 855 25.25 13.8 56.9 87 11.7 53
22:00 1026 30.3 855 25.25 13.8 56.9 86 11.6 52.9
22:05 1026 30.3 855 25.25 13.9 56.9 86 11.6 52.8
22:10 1026 30.3 855 25.25 13.9 57 85 11.5 52.7
22:15 1026 30.3 855 25.25 13.9 57 85 11.4 52.5
22:20 1026 30.3 855 25.25 13.9 57 84 11.3 52.4
22:25 1025 30.27 855 25.25 13.9 57 84 11.2 52.2
22:30 1025 30.27 855 25.25 13.8 56.9 84 11.1 52.1
22:35 1025 30.27 855 25.25 13.8 56.9 83 11.1 51.9
22:40 1025 30.27 855 25.25 13.9 57 83 11 51.9
22:45 1025 30.27 855 25.25 13.9 57 83 11.1 52
22:50 1025 30.27 855 25.25 13.9 57 83 11.1 52
22:55 1025 30.27 854 25.22 13.9 56.9 83 11.1 52
23:00 1025 30.27 854 25.22 13.9 57 84 11.2 52.2
23:05 1025 30.27 854 25.22 13.9 57 83 11.1 52
23:10 1025 30.27 854 25.22 13.8 56.9 83 11.1 51.9
23:15 1025 30.27 854 25.22 13.8 56.8 83 11 51.8
23:20 1025 30.27 854 25.22 13.6 56.5 84 11.1 51.9
23:25 1025 30.27 854 25.22 13.6 56.4 85 11 51.9
23:30 1025 30.27 854 25.22 13.5 56.4 84 11 51.7
23:35 1025 30.27 854 25.22 13.6 56.4 84 10.9 51.7
23:40 1025 30.27 854 25.22 13.6 56.4 84 11 51.7
23:45 1025 30.27 854 25.22 13.5 56.3 85 11 51.7
23:50 1025 30.27 854 25.22 13.4 56.1 85 11 51.8
23:55 1025 30.27 854 25.22 13.3 56 87 11.2 52.1
24:00 1025 30.27 854 25.22 13.1 55.6 87 11.1 51.9